sensor_id;sensor_type;location;lat;lon;timestamp;temperature;humidity
30148;DHT22;16960;49.404;8.248;2023-06-19T00:01:44;25.60;41.90
30148;DHT22;16960;49.404;8.248;2023-06-19T00:04:11;25.60;41.70
30148;DHT22;16960;49.404;8.248;2023-06-19T00:06:38;25.60;41.10
30148;DHT22;16960;49.404;8.248;2023-06-19T00:09:06;25.50;40.70
30148;DHT22;16960;49.404;8.248;2023-06-19T00:11:34;25.50;40.50
30148;DHT22;16960;49.404;8.248;2023-06-19T00:14:02;25.50;40.80
30148;DHT22;16960;49.404;8.248;2023-06-19T00:16:30;25.40;40.90
30148;DHT22;16960;49.404;8.248;2023-06-19T00:18:57;25.40;40.90
30148;DHT22;16960;49.404;8.248;2023-06-19T00:21:24;25.50;41.00
30148;DHT22;16960;49.404;8.248;2023-06-19T00:23:52;25.40;41.50
30148;DHT22;16960;49.404;8.248;2023-06-19T00:26:19;25.40;42.20
30148;DHT22;16960;49.404;8.248;2023-06-19T00:28:48;25.40;42.50
30148;DHT22;16960;49.404;8.248;2023-06-19T00:31:16;25.40;42.60
30148;DHT22;16960;49.404;8.248;2023-06-19T00:33:44;25.40;42.60
30148;DHT22;16960;49.404;8.248;2023-06-19T00:36:14;25.30;42.70
30148;DHT22;16960;49.404;8.248;2023-06-19T00:38:46;25.40;43.30
30148;DHT22;16960;49.404;8.248;2023-06-19T00:41:13;25.30;43.10
30148;DHT22;16960;49.404;8.248;2023-06-19T00:43:41;25.30;43.40
30148;DHT22;16960;49.404;8.248;2023-06-19T00:46:08;25.20;43.40
30148;DHT22;16960;49.404;8.248;2023-06-19T00:48:38;25.10;42.90
30148;DHT22;16960;49.404;8.248;2023-06-19T00:51:05;25.10;42.80
30148;DHT22;16960;49.404;8.248;2023-06-19T00:53:33;25.10;42.70
30148;DHT22;16960;49.404;8.248;2023-06-19T00:56:00;25.00;42.60
30148;DHT22;16960;49.404;8.248;2023-06-19T00:58:28;25.00;42.70
30148;DHT22;16960;49.404;8.248;2023-06-19T01:00:55;25.00;42.50
30148;DHT22;16960;49.404;8.248;2023-06-19T01:03:22;25.00;42.40
30148;DHT22;16960;49.404;8.248;2023-06-19T01:05:54;25.00;41.80
30148;DHT22;16960;49.404;8.248;2023-06-19T01:08:41;25.00;42.10
30148;DHT22;16960;49.404;8.248;2023-06-19T01:11:09;25.00;42.20
30148;DHT22;16960;49.404;8.248;2023-06-19T01:13:46;24.90;42.20
30148;DHT22;16960;49.404;8.248;2023-06-19T01:16:14;24.90;42.20
30148;DHT22;16960;49.404;8.248;2023-06-19T01:18:42;24.90;42.20
30148;DHT22;16960;49.404;8.248;2023-06-19T01:21:12;24.90;42.20
30148;DHT22;16960;49.404;8.248;2023-06-19T01:23:41;24.90;42.60
30148;DHT22;16960;49.404;8.248;2023-06-19T01:26:09;24.90;43.20
30148;DHT22;16960;49.404;8.248;2023-06-19T01:28:36;24.90;43.90
30148;DHT22;16960;49.404;8.248;2023-06-19T01:31:08;24.90;44.20
30148;DHT22;16960;49.404;8.248;2023-06-19T01:33:37;24.90;44.20
30148;DHT22;16960;49.404;8.248;2023-06-19T01:36:05;24.90;45.30
30148;DHT22;16960;49.404;8.248;2023-06-19T01:38:33;24.90;45.80
30148;DHT22;16960;49.404;8.248;2023-06-19T01:41:04;24.80;46.10
30148;DHT22;16960;49.404;8.248;2023-06-19T01:43:32;24.80;46.30
30148;DHT22;16960;49.404;8.248;2023-06-19T01:45:59;24.80;46.20
30148;DHT22;16960;49.404;8.248;2023-06-19T01:48:27;24.80;46.00
30148;DHT22;16960;49.404;8.248;2023-06-19T01:50:54;24.70;46.30
30148;DHT22;16960;49.404;8.248;2023-06-19T01:53:21;24.70;46.30
30148;DHT22;16960;49.404;8.248;2023-06-19T01:55:48;24.70;46.20
30148;DHT22;16960;49.404;8.248;2023-06-19T01:58:17;24.70;46.10
30148;DHT22;16960;49.404;8.248;2023-06-19T02:00:44;24.70;46.20
30148;DHT22;16960;49.404;8.248;2023-06-19T02:03:11;24.70;46.00
30148;DHT22;16960;49.404;8.248;2023-06-19T02:05:38;24.80;46.10
30148;DHT22;16960;49.404;8.248;2023-06-19T02:08:05;24.70;46.00
30148;DHT22;16960;49.404;8.248;2023-06-19T02:10:32;24.80;45.90
30148;DHT22;16960;49.404;8.248;2023-06-19T02:12:59;24.80;46.10
30148;DHT22;16960;49.404;8.248;2023-06-19T02:15:28;24.80;46.00
30148;DHT22;16960;49.404;8.248;2023-06-19T02:17:55;24.80;46.30
30148;DHT22;16960;49.404;8.248;2023-06-19T02:20:22;24.70;46.40
30148;DHT22;16960;49.404;8.248;2023-06-19T02:22:51;24.70;46.70
30148;DHT22;16960;49.404;8.248;2023-06-19T02:25:18;24.70;46.80
30148;DHT22;16960;49.404;8.248;2023-06-19T02:27:45;24.70;47.20
30148;DHT22;16960;49.404;8.248;2023-06-19T02:30:13;24.60;47.10
30148;DHT22;16960;49.404;8.248;2023-06-19T02:32:41;24.60;47.30
30148;DHT22;16960;49.404;8.248;2023-06-19T02:35:10;24.60;47.70
30148;DHT22;16960;49.404;8.248;2023-06-19T02:37:37;24.50;48.20
30148;DHT22;16960;49.404;8.248;2023-06-19T02:40:05;24.50;48.60
30148;DHT22;16960;49.404;8.248;2023-06-19T02:42:34;24.40;48.60
30148;DHT22;16960;49.404;8.248;2023-06-19T02:45:01;24.50;49.30
30148;DHT22;16960;49.404;8.248;2023-06-19T02:47:29;24.40;50.40
30148;DHT22;16960;49.404;8.248;2023-06-19T02:49:59;24.50;50.00
30148;DHT22;16960;49.404;8.248;2023-06-19T02:52:26;24.40;51.30
30148;DHT22;16960;49.404;8.248;2023-06-19T02:54:53;24.50;51.90
30148;DHT22;16960;49.404;8.248;2023-06-19T02:57:20;24.50;51.60
30148;DHT22;16960;49.404;8.248;2023-06-19T02:59:47;24.40;52.00
30148;DHT22;16960;49.404;8.248;2023-06-19T03:02:15;24.40;52.20
30148;DHT22;16960;49.404;8.248;2023-06-19T03:04:42;24.40;52.20
30148;DHT22;16960;49.404;8.248;2023-06-19T03:07:19;24.30;52.80
30148;DHT22;16960;49.404;8.248;2023-06-19T03:09:46;24.30;52.80
30148;DHT22;16960;49.404;8.248;2023-06-19T03:12:13;24.30;52.70
30148;DHT22;16960;49.404;8.248;2023-06-19T03:14:39;24.20;52.90
30148;DHT22;16960;49.404;8.248;2023-06-19T03:17:06;24.30;52.70
30148;DHT22;16960;49.404;8.248;2023-06-19T03:19:33;24.20;52.50
30148;DHT22;16960;49.404;8.248;2023-06-19T03:22:00;24.20;52.80
30148;DHT22;16960;49.404;8.248;2023-06-19T03:24:30;24.30;52.60
30148;DHT22;16960;49.404;8.248;2023-06-19T03:26:57;24.30;53.30
30148;DHT22;16960;49.404;8.248;2023-06-19T03:29:24;24.20;53.80
30148;DHT22;16960;49.404;8.248;2023-06-19T03:31:50;24.20;53.20
30148;DHT22;16960;49.404;8.248;2023-06-19T03:34:17;24.20;52.80
30148;DHT22;16960;49.404;8.248;2023-06-19T03:36:44;24.20;52.90
30148;DHT22;16960;49.404;8.248;2023-06-19T03:39:11;24.20;53.20
30148;DHT22;16960;49.404;8.248;2023-06-19T03:41:39;24.20;53.40
30148;DHT22;16960;49.404;8.248;2023-06-19T03:44:06;24.20;53.20
30148;DHT22;16960;49.404;8.248;2023-06-19T03:46:33;24.20;53.20
30148;DHT22;16960;49.404;8.248;2023-06-19T03:49:00;24.20;53.60
30148;DHT22;16960;49.404;8.248;2023-06-19T03:51:28;24.10;53.80
30148;DHT22;16960;49.404;8.248;2023-06-19T03:53:55;24.10;53.90
30148;DHT22;16960;49.404;8.248;2023-06-19T03:56:22;24.00;53.80
30148;DHT22;16960;49.404;8.248;2023-06-19T03:58:50;23.90;53.80
30148;DHT22;16960;49.404;8.248;2023-06-19T04:01:17;23.90;54.00
30148;DHT22;16960;49.404;8.248;2023-06-19T04:03:44;23.90;53.90
30148;DHT22;16960;49.404;8.248;2023-06-19T04:06:11;23.80;54.00
30148;DHT22;16960;49.404;8.248;2023-06-19T04:08:38;23.80;54.10
30148;DHT22;16960;49.404;8.248;2023-06-19T04:11:05;23.70;54.20
30148;DHT22;16960;49.404;8.248;2023-06-19T04:13:32;23.70;54.30
30148;DHT22;16960;49.404;8.248;2023-06-19T04:16:00;23.60;54.30
30148;DHT22;16960;49.404;8.248;2023-06-19T04:18:27;23.60;54.50
30148;DHT22;16960;49.404;8.248;2023-06-19T04:20:54;23.50;54.60
30148;DHT22;16960;49.404;8.248;2023-06-19T04:23:21;23.50;54.60
30148;DHT22;16960;49.404;8.248;2023-06-19T04:25:48;23.50;54.40
30148;DHT22;16960;49.404;8.248;2023-06-19T04:28:15;23.50;54.50
30148;DHT22;16960;49.404;8.248;2023-06-19T04:30:41;23.50;55.00
30148;DHT22;16960;49.404;8.248;2023-06-19T04:33:10;23.40;55.70
30148;DHT22;16960;49.404;8.248;2023-06-19T04:35:37;23.40;55.50
30148;DHT22;16960;49.404;8.248;2023-06-19T04:38:05;23.30;55.40
30148;DHT22;16960;49.404;8.248;2023-06-19T04:40:33;23.30;55.70
30148;DHT22;16960;49.404;8.248;2023-06-19T04:43:00;23.30;55.80
30148;DHT22;16960;49.404;8.248;2023-06-19T04:45:28;23.20;56.00
30148;DHT22;16960;49.404;8.248;2023-06-19T04:47:54;23.20;56.40
30148;DHT22;16960;49.404;8.248;2023-06-19T04:50:23;23.10;56.80
30148;DHT22;16960;49.404;8.248;2023-06-19T04:52:50;23.10;56.60
30148;DHT22;16960;49.404;8.248;2023-06-19T04:55:17;23.10;56.70
30148;DHT22;16960;49.404;8.248;2023-06-19T04:57:43;23.00;57.00
30148;DHT22;16960;49.404;8.248;2023-06-19T05:00:11;23.00;57.10
30148;DHT22;16960;49.404;8.248;2023-06-19T05:02:40;22.90;56.90
30148;DHT22;16960;49.404;8.248;2023-06-19T05:05:09;22.90;57.20
30148;DHT22;16960;49.404;8.248;2023-06-19T05:07:37;22.90;57.40
30148;DHT22;16960;49.404;8.248;2023-06-19T05:10:05;22.90;57.20
30148;DHT22;16960;49.404;8.248;2023-06-19T05:12:34;22.90;57.80
30148;DHT22;16960;49.404;8.248;2023-06-19T05:15:01;22.90;57.70
30148;DHT22;16960;49.404;8.248;2023-06-19T05:17:28;22.90;58.00
30148;DHT22;16960;49.404;8.248;2023-06-19T05:19:55;22.80;58.00
30148;DHT22;16960;49.404;8.248;2023-06-19T05:22:22;22.80;58.10
30148;DHT22;16960;49.404;8.248;2023-06-19T05:24:51;22.80;58.10
30148;DHT22;16960;49.404;8.248;2023-06-19T05:27:18;22.80;58.40
30148;DHT22;16960;49.404;8.248;2023-06-19T05:29:44;22.80;58.00
30148;DHT22;16960;49.404;8.248;2023-06-19T05:32:11;22.90;58.00
30148;DHT22;16960;49.404;8.248;2023-06-19T05:34:38;22.90;58.30
30148;DHT22;16960;49.404;8.248;2023-06-19T05:37:05;22.90;58.10
30148;DHT22;16960;49.404;8.248;2023-06-19T05:39:32;22.90;57.70
30148;DHT22;16960;49.404;8.248;2023-06-19T05:42:01;22.90;58.60
30148;DHT22;16960;49.404;8.248;2023-06-19T05:44:28;22.90;57.90
30148;DHT22;16960;49.404;8.248;2023-06-19T05:46:55;22.90;57.90
30148;DHT22;16960;49.404;8.248;2023-06-19T05:49:22;23.00;58.00
30148;DHT22;16960;49.404;8.248;2023-06-19T05:51:48;23.00;57.90
30148;DHT22;16960;49.404;8.248;2023-06-19T05:54:15;23.00;57.80
30148;DHT22;16960;49.404;8.248;2023-06-19T05:56:43;23.00;58.20
30148;DHT22;16960;49.404;8.248;2023-06-19T05:59:11;23.00;58.30
30148;DHT22;16960;49.404;8.248;2023-06-19T06:01:40;23.10;58.40
30148;DHT22;16960;49.404;8.248;2023-06-19T06:04:07;23.00;58.60
30148;DHT22;16960;49.404;8.248;2023-06-19T06:06:34;23.00;58.40
30148;DHT22;16960;49.404;8.248;2023-06-19T06:09:01;22.90;58.50
30148;DHT22;16960;49.404;8.248;2023-06-19T06:11:28;22.90;58.80
30148;DHT22;16960;49.404;8.248;2023-06-19T06:13:55;22.90;58.80
30148;DHT22;16960;49.404;8.248;2023-06-19T06:16:23;23.10;58.80
30148;DHT22;16960;49.404;8.248;2023-06-19T06:18:50;23.00;58.70
30148;DHT22;16960;49.404;8.248;2023-06-19T06:21:17;23.10;59.20
30148;DHT22;16960;49.404;8.248;2023-06-19T06:23:44;23.00;58.80
30148;DHT22;16960;49.404;8.248;2023-06-19T06:26:13;23.00;59.00
30148;DHT22;16960;49.404;8.248;2023-06-19T06:28:40;23.10;58.70
30148;DHT22;16960;49.404;8.248;2023-06-19T06:31:07;23.10;59.20
30148;DHT22;16960;49.404;8.248;2023-06-19T06:33:35;23.10;58.60
30148;DHT22;16960;49.404;8.248;2023-06-19T06:36:02;23.20;58.20
30148;DHT22;16960;49.404;8.248;2023-06-19T06:38:29;23.20;57.70
30148;DHT22;16960;49.404;8.248;2023-06-19T06:40:56;23.30;57.80
30148;DHT22;16960;49.404;8.248;2023-06-19T06:43:23;23.40;57.50
30148;DHT22;16960;49.404;8.248;2023-06-19T06:45:50;23.40;57.10
30148;DHT22;16960;49.404;8.248;2023-06-19T06:48:17;23.50;57.00
30148;DHT22;16960;49.404;8.248;2023-06-19T06:50:45;23.50;57.20
30148;DHT22;16960;49.404;8.248;2023-06-19T06:53:12;23.60;57.20
30148;DHT22;16960;49.404;8.248;2023-06-19T06:55:39;23.60;56.90
30148;DHT22;16960;49.404;8.248;2023-06-19T06:58:06;23.70;56.90
30148;DHT22;16960;49.404;8.248;2023-06-19T07:00:33;23.70;57.20
30148;DHT22;16960;49.404;8.248;2023-06-19T07:02:59;23.80;57.10
30148;DHT22;16960;49.404;8.248;2023-06-19T07:05:26;23.80;56.90
30148;DHT22;16960;49.404;8.248;2023-06-19T07:07:56;23.90;56.80
30148;DHT22;16960;49.404;8.248;2023-06-19T07:10:24;23.90;56.70
30148;DHT22;16960;49.404;8.248;2023-06-19T07:12:50;24.00;56.70
30148;DHT22;16960;49.404;8.248;2023-06-19T07:15:18;24.00;56.90
30148;DHT22;16960;49.404;8.248;2023-06-19T07:17:45;24.10;56.30
30148;DHT22;16960;49.404;8.248;2023-06-19T07:20:12;24.10;56.40
30148;DHT22;16960;49.404;8.248;2023-06-19T07:22:39;24.10;56.40
30148;DHT22;16960;49.404;8.248;2023-06-19T07:25:10;24.20;56.20
30148;DHT22;16960;49.404;8.248;2023-06-19T07:27:37;24.20;56.00
30148;DHT22;16960;49.404;8.248;2023-06-19T07:30:05;24.30;55.90
30148;DHT22;16960;49.404;8.248;2023-06-19T07:32:33;24.30;55.80
30148;DHT22;16960;49.404;8.248;2023-06-19T07:34:59;24.40;56.10
30148;DHT22;16960;49.404;8.248;2023-06-19T07:37:26;24.40;55.70
30148;DHT22;16960;49.404;8.248;2023-06-19T07:39:53;24.50;55.70
30148;DHT22;16960;49.404;8.248;2023-06-19T07:42:22;24.50;55.70
30148;DHT22;16960;49.404;8.248;2023-06-19T07:44:49;24.50;55.60
30148;DHT22;16960;49.404;8.248;2023-06-19T07:47:17;24.50;55.20
30148;DHT22;16960;49.404;8.248;2023-06-19T07:49:46;24.60;55.30
30148;DHT22;16960;49.404;8.248;2023-06-19T07:52:13;24.60;55.30
30148;DHT22;16960;49.404;8.248;2023-06-19T07:54:50;24.60;55.40
30148;DHT22;16960;49.404;8.248;2023-06-19T07:57:17;24.70;55.30
30148;DHT22;16960;49.404;8.248;2023-06-19T07:59:45;24.70;55.10
30148;DHT22;16960;49.404;8.248;2023-06-19T08:02:12;24.70;54.40
30148;DHT22;16960;49.404;8.248;2023-06-19T08:04:39;24.80;54.40
30148;DHT22;16960;49.404;8.248;2023-06-19T08:07:06;24.80;53.70
30148;DHT22;16960;49.404;8.248;2023-06-19T08:09:33;24.90;53.50
30148;DHT22;16960;49.404;8.248;2023-06-19T08:12:00;25.00;53.20
30148;DHT22;16960;49.404;8.248;2023-06-19T08:14:27;25.00;52.90
30148;DHT22;16960;49.404;8.248;2023-06-19T08:16:56;25.10;52.50
30148;DHT22;16960;49.404;8.248;2023-06-19T08:19:23;25.10;52.30
30148;DHT22;16960;49.404;8.248;2023-06-19T08:21:49;25.20;52.00
30148;DHT22;16960;49.404;8.248;2023-06-19T08:24:17;25.30;51.90
30148;DHT22;16960;49.404;8.248;2023-06-19T08:26:44;25.30;51.70
30148;DHT22;16960;49.404;8.248;2023-06-19T08:29:11;25.30;51.50
30148;DHT22;16960;49.404;8.248;2023-06-19T08:31:38;25.40;51.20
30148;DHT22;16960;49.404;8.248;2023-06-19T08:34:06;25.40;51.00
30148;DHT22;16960;49.404;8.248;2023-06-19T08:36:35;25.40;50.90
30148;DHT22;16960;49.404;8.248;2023-06-19T08:39:02;25.50;50.70
30148;DHT22;16960;49.404;8.248;2023-06-19T08:41:29;25.50;50.50
30148;DHT22;16960;49.404;8.248;2023-06-19T08:43:56;25.60;50.30
30148;DHT22;16960;49.404;8.248;2023-06-19T08:46:23;25.60;50.20
30148;DHT22;16960;49.404;8.248;2023-06-19T08:48:50;25.70;50.10
30148;DHT22;16960;49.404;8.248;2023-06-19T08:51:19;25.70;50.00
30148;DHT22;16960;49.404;8.248;2023-06-19T08:53:47;25.70;49.80
30148;DHT22;16960;49.404;8.248;2023-06-19T08:56:16;25.70;49.70
30148;DHT22;16960;49.404;8.248;2023-06-19T08:58:43;25.80;49.50
30148;DHT22;16960;49.404;8.248;2023-06-19T09:01:10;25.80;49.50
30148;DHT22;16960;49.404;8.248;2023-06-19T09:03:38;25.80;49.30
30148;DHT22;16960;49.404;8.248;2023-06-19T09:06:07;25.80;49.20
30148;DHT22;16960;49.404;8.248;2023-06-19T09:08:35;25.90;49.10
30148;DHT22;16960;49.404;8.248;2023-06-19T09:11:04;25.90;49.00
30148;DHT22;16960;49.404;8.248;2023-06-19T09:13:32;25.90;48.90
30148;DHT22;16960;49.404;8.248;2023-06-19T09:15:59;25.90;48.80
30148;DHT22;16960;49.404;8.248;2023-06-19T09:18:29;25.90;48.70
30148;DHT22;16960;49.404;8.248;2023-06-19T09:20:57;26.00;49.10
30148;DHT22;16960;49.404;8.248;2023-06-19T09:23:24;26.00;49.70
30148;DHT22;16960;49.404;8.248;2023-06-19T09:25:53;26.00;48.90
30148;DHT22;16960;49.404;8.248;2023-06-19T09:28:22;26.00;48.80
30148;DHT22;16960;49.404;8.248;2023-06-19T09:30:57;26.10;48.70
30148;DHT22;16960;49.404;8.248;2023-06-19T09:33:26;26.10;48.70
30148;DHT22;16960;49.404;8.248;2023-06-19T09:35:54;26.20;48.60
30148;DHT22;16960;49.404;8.248;2023-06-19T09:38:24;26.20;48.60
30148;DHT22;16960;49.404;8.248;2023-06-19T09:40:53;26.20;48.50
30148;DHT22;16960;49.404;8.248;2023-06-19T09:43:24;26.20;48.30
30148;DHT22;16960;49.404;8.248;2023-06-19T09:45:55;26.20;48.20
30148;DHT22;16960;49.404;8.248;2023-06-19T09:48:27;26.30;48.20
30148;DHT22;16960;49.404;8.248;2023-06-19T09:51:00;26.30;48.10
30148;DHT22;16960;49.404;8.248;2023-06-19T09:53:27;26.30;48.00
30148;DHT22;16960;49.404;8.248;2023-06-19T09:55:56;26.30;48.00
30148;DHT22;16960;49.404;8.248;2023-06-19T09:58:23;26.30;47.90
30148;DHT22;16960;49.404;8.248;2023-06-19T10:00:50;26.40;47.80
30148;DHT22;16960;49.404;8.248;2023-06-19T10:03:19;26.40;47.80
30148;DHT22;16960;49.404;8.248;2023-06-19T10:05:46;26.40;47.70
30148;DHT22;16960;49.404;8.248;2023-06-19T10:08:13;26.40;47.60
30148;DHT22;16960;49.404;8.248;2023-06-19T10:10:47;26.40;47.50
30148;DHT22;16960;49.404;8.248;2023-06-19T10:13:16;26.50;47.50
30148;DHT22;16960;49.404;8.248;2023-06-19T10:15:44;26.50;47.50
30148;DHT22;16960;49.404;8.248;2023-06-19T10:18:15;26.50;47.40
30148;DHT22;16960;49.404;8.248;2023-06-19T10:20:43;26.50;47.30
30148;DHT22;16960;49.404;8.248;2023-06-19T10:23:12;26.50;47.20
30148;DHT22;16960;49.404;8.248;2023-06-19T10:25:43;26.50;47.20
30148;DHT22;16960;49.404;8.248;2023-06-19T10:28:21;26.50;47.10
30148;DHT22;16960;49.404;8.248;2023-06-19T10:30:53;26.50;47.10
30148;DHT22;16960;49.404;8.248;2023-06-19T10:33:20;26.50;47.00
30148;DHT22;16960;49.404;8.248;2023-06-19T10:35:47;26.50;47.00
30148;DHT22;16960;49.404;8.248;2023-06-19T10:38:15;26.50;46.90
30148;DHT22;16960;49.404;8.248;2023-06-19T10:40:42;26.60;46.80
30148;DHT22;16960;49.404;8.248;2023-06-19T10:43:10;26.50;46.80
30148;DHT22;16960;49.404;8.248;2023-06-19T10:45:38;26.60;46.80
30148;DHT22;16960;49.404;8.248;2023-06-19T10:48:05;26.60;46.70
30148;DHT22;16960;49.404;8.248;2023-06-19T10:50:34;26.60;46.70
30148;DHT22;16960;49.404;8.248;2023-06-19T10:53:03;26.60;46.60
30148;DHT22;16960;49.404;8.248;2023-06-19T10:55:30;26.60;46.50
30148;DHT22;16960;49.404;8.248;2023-06-19T10:57:57;26.60;46.50
30148;DHT22;16960;49.404;8.248;2023-06-19T11:00:26;26.60;46.60
30148;DHT22;16960;49.404;8.248;2023-06-19T11:02:55;26.60;46.50
30148;DHT22;16960;49.404;8.248;2023-06-19T11:05:22;26.60;46.50
30148;DHT22;16960;49.404;8.248;2023-06-19T11:07:54;26.70;46.40
30148;DHT22;16960;49.404;8.248;2023-06-19T11:10:21;26.70;46.40
30148;DHT22;16960;49.404;8.248;2023-06-19T11:12:48;26.70;46.40
30148;DHT22;16960;49.404;8.248;2023-06-19T11:15:16;26.70;46.30
30148;DHT22;16960;49.404;8.248;2023-06-19T11:17:43;26.70;46.40
30148;DHT22;16960;49.404;8.248;2023-06-19T11:20:12;26.70;46.40
30148;DHT22;16960;49.404;8.248;2023-06-19T11:22:41;26.80;46.40
30148;DHT22;16960;49.404;8.248;2023-06-19T11:25:09;26.80;46.30
30148;DHT22;16960;49.404;8.248;2023-06-19T11:27:38;26.80;46.20
30148;DHT22;16960;49.404;8.248;2023-06-19T11:30:07;26.80;46.20
30148;DHT22;16960;49.404;8.248;2023-06-19T11:32:36;26.80;46.20
30148;DHT22;16960;49.404;8.248;2023-06-19T11:35:08;26.90;46.20
30148;DHT22;16960;49.404;8.248;2023-06-19T11:37:40;26.90;46.20
30148;DHT22;16960;49.404;8.248;2023-06-19T11:40:07;26.90;46.20
30148;DHT22;16960;49.404;8.248;2023-06-19T11:42:48;26.90;46.10
30148;DHT22;16960;49.404;8.248;2023-06-19T11:45:15;26.90;46.00
30148;DHT22;16960;49.404;8.248;2023-06-19T11:47:45;27.00;46.60
30148;DHT22;16960;49.404;8.248;2023-06-19T11:50:13;27.00;46.50
30148;DHT22;16960;49.404;8.248;2023-06-19T11:52:43;27.00;46.60
30148;DHT22;16960;49.404;8.248;2023-06-19T11:55:11;27.10;46.50
30148;DHT22;16960;49.404;8.248;2023-06-19T11:57:38;27.10;46.50
30148;DHT22;16960;49.404;8.248;2023-06-19T12:00:14;27.10;46.50
30148;DHT22;16960;49.404;8.248;2023-06-19T12:02:41;27.10;46.30
30148;DHT22;16960;49.404;8.248;2023-06-19T12:05:08;27.10;46.30
30148;DHT22;16960;49.404;8.248;2023-06-19T12:07:36;27.20;46.30
30148;DHT22;16960;49.404;8.248;2023-06-19T12:10:05;27.20;46.20
30148;DHT22;16960;49.404;8.248;2023-06-19T12:12:36;27.20;46.10
30148;DHT22;16960;49.404;8.248;2023-06-19T12:15:04;27.20;46.10
30148;DHT22;16960;49.404;8.248;2023-06-19T12:17:32;27.30;46.00
30148;DHT22;16960;49.404;8.248;2023-06-19T12:19:59;27.30;46.00
30148;DHT22;16960;49.404;8.248;2023-06-19T12:22:26;27.30;45.90
30148;DHT22;16960;49.404;8.248;2023-06-19T12:24:54;27.30;45.90
30148;DHT22;16960;49.404;8.248;2023-06-19T12:27:22;27.40;45.80
30148;DHT22;16960;49.404;8.248;2023-06-19T12:29:49;27.40;45.80
30148;DHT22;16960;49.404;8.248;2023-06-19T12:32:16;27.40;45.70
30148;DHT22;16960;49.404;8.248;2023-06-19T12:34:43;27.40;45.70
30148;DHT22;16960;49.404;8.248;2023-06-19T12:37:13;27.40;45.70
30148;DHT22;16960;49.404;8.248;2023-06-19T12:39:40;27.40;45.60
30148;DHT22;16960;49.404;8.248;2023-06-19T12:42:08;27.40;45.60
30148;DHT22;16960;49.404;8.248;2023-06-19T12:44:39;27.50;45.60
30148;DHT22;16960;49.404;8.248;2023-06-19T12:47:07;27.50;45.50
30148;DHT22;16960;49.404;8.248;2023-06-19T12:49:34;27.50;45.60
30148;DHT22;16960;49.404;8.248;2023-06-19T12:52:01;27.50;45.40
30148;DHT22;16960;49.404;8.248;2023-06-19T12:54:28;27.50;45.40
30148;DHT22;16960;49.404;8.248;2023-06-19T12:56:55;27.50;45.40
30148;DHT22;16960;49.404;8.248;2023-06-19T12:59:22;27.60;45.40
30148;DHT22;16960;49.404;8.248;2023-06-19T13:01:50;27.60;45.40
30148;DHT22;16960;49.404;8.248;2023-06-19T13:04:17;27.60;45.30
30148;DHT22;16960;49.404;8.248;2023-06-19T13:06:44;27.60;45.30
30148;DHT22;16960;49.404;8.248;2023-06-19T13:09:11;27.70;45.40
30148;DHT22;16960;49.404;8.248;2023-06-19T13:11:38;27.70;45.20
30148;DHT22;16960;49.404;8.248;2023-06-19T13:14:05;27.70;45.20
30148;DHT22;16960;49.404;8.248;2023-06-19T13:16:32;27.70;45.20
30148;DHT22;16960;49.404;8.248;2023-06-19T13:19:00;27.70;45.10
30148;DHT22;16960;49.404;8.248;2023-06-19T13:21:27;27.70;45.10
30148;DHT22;16960;49.404;8.248;2023-06-19T13:23:54;27.70;45.00
30148;DHT22;16960;49.404;8.248;2023-06-19T13:26:21;27.70;45.00
30148;DHT22;16960;49.404;8.248;2023-06-19T13:28:48;27.70;44.90
30148;DHT22;16960;49.404;8.248;2023-06-19T13:31:15;27.70;44.90
30148;DHT22;16960;49.404;8.248;2023-06-19T13:33:42;27.70;45.10
30148;DHT22;16960;49.404;8.248;2023-06-19T13:36:10;27.80;45.10
30148;DHT22;16960;49.404;8.248;2023-06-19T13:38:37;27.80;45.70
30148;DHT22;16960;49.404;8.248;2023-06-19T13:41:04;27.80;45.00
30148;DHT22;16960;49.404;8.248;2023-06-19T13:43:32;27.80;45.00
30148;DHT22;16960;49.404;8.248;2023-06-19T13:45:59;27.80;45.00
30148;DHT22;16960;49.404;8.248;2023-06-19T13:48:26;27.80;45.00
30148;DHT22;16960;49.404;8.248;2023-06-19T13:50:53;27.80;44.90
30148;DHT22;16960;49.404;8.248;2023-06-19T13:53:21;27.90;44.90
30148;DHT22;16960;49.404;8.248;2023-06-19T13:55:49;27.90;44.80
30148;DHT22;16960;49.404;8.248;2023-06-19T13:58:16;27.90;44.90
30148;DHT22;16960;49.404;8.248;2023-06-19T14:00:43;27.90;44.90
30148;DHT22;16960;49.404;8.248;2023-06-19T14:03:10;27.90;44.80
30148;DHT22;16960;49.404;8.248;2023-06-19T14:05:37;27.90;44.80
30148;DHT22;16960;49.404;8.248;2023-06-19T14:08:04;28.00;45.30
30148;DHT22;16960;49.404;8.248;2023-06-19T14:10:32;28.00;45.20
30148;DHT22;16960;49.404;8.248;2023-06-19T14:12:59;28.00;45.20
30148;DHT22;16960;49.404;8.248;2023-06-19T14:15:26;28.00;45.20
30148;DHT22;16960;49.404;8.248;2023-06-19T14:17:53;28.00;45.10
30148;DHT22;16960;49.404;8.248;2023-06-19T14:20:20;28.10;45.20
30148;DHT22;16960;49.404;8.248;2023-06-19T14:22:46;28.10;45.10
30148;DHT22;16960;49.404;8.248;2023-06-19T14:25:13;28.10;45.80
30148;DHT22;16960;49.404;8.248;2023-06-19T14:27:42;28.10;45.00
30148;DHT22;16960;49.404;8.248;2023-06-19T14:30:09;28.10;45.10
30148;DHT22;16960;49.404;8.248;2023-06-19T14:32:36;28.10;45.10
30148;DHT22;16960;49.404;8.248;2023-06-19T14:35:04;28.10;45.00
30148;DHT22;16960;49.404;8.248;2023-06-19T14:37:31;28.10;45.00
30148;DHT22;16960;49.404;8.248;2023-06-19T14:39:58;28.10;45.10
30148;DHT22;16960;49.404;8.248;2023-06-19T14:42:25;28.10;45.00
30148;DHT22;16960;49.404;8.248;2023-06-19T14:44:54;28.10;45.00
30148;DHT22;16960;49.404;8.248;2023-06-19T14:47:21;28.20;45.00
30148;DHT22;16960;49.404;8.248;2023-06-19T14:49:49;28.20;45.00
30148;DHT22;16960;49.404;8.248;2023-06-19T14:52:18;28.20;44.90
30148;DHT22;16960;49.404;8.248;2023-06-19T14:54:45;28.20;45.00
30148;DHT22;16960;49.404;8.248;2023-06-19T14:57:12;28.20;45.20
30148;DHT22;16960;49.404;8.248;2023-06-19T14:59:39;28.30;45.30
30148;DHT22;16960;49.404;8.248;2023-06-19T15:02:07;28.30;45.10
30148;DHT22;16960;49.404;8.248;2023-06-19T15:04:36;28.30;45.00
30148;DHT22;16960;49.404;8.248;2023-06-19T15:07:04;28.30;44.90
30148;DHT22;16960;49.404;8.248;2023-06-19T15:09:31;28.30;44.80
30148;DHT22;16960;49.404;8.248;2023-06-19T15:11:58;28.30;44.80
30148;DHT22;16960;49.404;8.248;2023-06-19T15:14:25;28.30;44.80
30148;DHT22;16960;49.404;8.248;2023-06-19T15:16:52;28.30;44.70
30148;DHT22;16960;49.404;8.248;2023-06-19T15:19:20;28.30;44.70
30148;DHT22;16960;49.404;8.248;2023-06-19T15:21:49;28.30;44.60
30148;DHT22;16960;49.404;8.248;2023-06-19T15:24:16;28.30;44.70
30148;DHT22;16960;49.404;8.248;2023-06-19T15:26:43;28.30;44.60
30148;DHT22;16960;49.404;8.248;2023-06-19T15:29:10;28.30;44.60
30148;DHT22;16960;49.404;8.248;2023-06-19T15:31:37;28.30;44.60
30148;DHT22;16960;49.404;8.248;2023-06-19T15:34:04;28.30;44.60